Time;durP1;ratioP1;P1;durP2;ratioP2;P2;SDS_P1;SDS_P2;PMS_P1;PMS_P2;Temp;Humidity;BMP_temperature;BMP_pressure;BME280_temperature;BME280_humidity;BME280_pressure;Samples;Min_cycle;Max_cycle;Signal;HPM_P1;HPM_P2
2021/12/25 00:00:14;;;;;;;13.53;8.20;;;3.50;1.00;;;;;;5011128;28;20874;-59
2021/12/25 00:02:41;;;;;;;14.53;8.37;;;3.50;1.00;;;;;;5011424;28;20892;-59
2021/12/25 00:05:09;;;;;;;13.97;7.13;;;3.60;1.00;;;;;;5012332;28;20477;-60
2021/12/25 00:07:36;;;;;;;16.03;9.23;;;3.60;1.00;;;;;;5013720;28;20253;-60
2021/12/25 00:10:04;;;;;;;14.40;8.00;;;3.50;1.00;;;;;;5012620;28;20450;-61
2021/12/25 00:12:32;;;;;;;15.07;8.73;;;3.50;1.00;;;;;;5010885;28;20918;-60
2021/12/25 00:14:59;;;;;;;11.97;7.30;;;3.50;1.00;;;;;;5011532;28;20543;-60
2021/12/25 00:17:26;;;;;;;17.37;9.00;;;3.50;1.00;;;;;;5010719;28;20882;-60
2021/12/25 00:19:53;;;;;;;14.63;8.93;;;3.50;1.00;;;;;;5010647;28;20302;-60
2021/12/25 00:22:21;;;;;;;14.87;9.67;;;3.50;1.00;;;;;;5011030;28;20529;-57
2021/12/25 00:24:47;;;;;;;15.30;9.70;;;3.50;1.00;;;;;;5010966;28;20482;-60
2021/12/25 00:27:36;;;;;;;14.00;7.63;;;3.50;1.00;;;;;;5010320;28;20666;-60
2021/12/25 00:30:16;;;;;;;12.03;8.13;;;3.40;1.00;;;;;;5010912;28;20242;-60
2021/12/25 00:32:51;;;;;;;17.33;10.67;;;3.30;1.00;;;;;;5011166;28;20437;-60
2021/12/25 00:35:18;;;;;;;11.40;7.73;;;3.30;1.00;;;;;;5014602;28;20512;-60
2021/12/25 00:37:45;;;;;;;16.70;10.20;;;3.30;1.00;;;;;;5013496;28;20485;-60
2021/12/25 00:40:12;;;;;;;20.43;11.33;;;3.30;1.00;;;;;;5014402;28;20504;-60
2021/12/25 00:42:39;;;;;;;20.97;12.50;;;3.30;1.00;;;;;;5014594;28;20438;-60
2021/12/25 00:45:08;;;;;;;20.10;12.43;;;3.30;1.00;;;;;;5013481;28;21134;-60
2021/12/25 00:47:35;;;;;;;9.90;6.97;;;3.30;1.00;;;;;;5014258;28;20470;-60
2021/12/25 00:50:02;;;;;;;17.97;11.00;;;3.20;1.00;;;;;;5013962;28;20434;-60
2021/12/25 00:52:29;;;;;;;13.97;8.73;;;3.10;1.00;;;;;;5014430;28;20500;-59
2021/12/25 00:54:56;;;;;;;14.80;8.90;;;3.00;1.00;;;;;;5015158;28;20535;-60
2021/12/25 00:57:23;;;;;;;16.30;11.30;;;3.00;1.00;;;;;;5014564;28;20470;-60
2021/12/25 00:59:49;;;;;;;17.53;10.67;;;2.90;1.00;;;;;;5014646;28;20508;-59
2021/12/25 01:02:18;;;;;;;18.27;10.23;;;2.90;1.00;;;;;;5013992;28;20952;-60
2021/12/25 01:04:44;;;;;;;20.60;12.57;;;2.90;1.00;;;;;;5014632;28;20543;-60
2021/12/25 01:07:11;;;;;;;18.13;12.10;;;2.90;1.00;;;;;;5014233;28;20470;-60
2021/12/25 01:09:38;;;;;;;19.57;12.37;;;2.90;1.00;;;;;;5013849;28;20802;-60
2021/12/25 01:12:05;;;;;;;19.53;11.17;;;2.80;1.00;;;;;;5013601;28;20496;-60
2021/12/25 01:14:36;;;;;;;18.43;11.87;;;2.80;1.00;;;;;;5014084;28;20446;-59
2021/12/25 01:17:29;;;;;;;18.27;11.60;;;2.80;1.00;;;;;;5014072;28;20549;-60
2021/12/25 01:23:14;;;;;;;16.67;11.63;;;2.60;1.00;;;;;;5013739;28;21211;-59
2021/12/25 01:25:58;;;;;;;21.50;12.60;;;2.60;1.00;;;;;;5013662;28;20988;-60
2021/12/25 01:29:04;;;;;;;19.23;12.00;;;2.60;1.00;;;;;;5014147;28;21026;-60
2021/12/25 01:31:33;;;;;;;24.63;13.53;;;2.60;1.00;;;;;;5013865;28;20457;-60
2021/12/25 01:37:00;;;;;;;15.33;9.23;;;2.50;1.00;;;;;;5013397;28;21071;-59
2021/12/25 01:39:42;;;;;;;18.43;10.87;;;2.50;1.00;;;;;;5012936;28;20457;-59
2021/12/25 01:47:48;;;;;;;16.73;11.20;;;2.30;1.00;;;;;;5012765;28;20461;-59
2021/12/25 01:50:18;;;;;;;16.63;10.80;;;2.40;1.00;;;;;;5013570;28;20461;-60
2021/12/25 01:52:46;;;;;;;22.20;13.40;;;2.40;1.00;;;;;;5013683;28;20450;-60
2021/12/25 01:55:17;;;;;;;14.50;7.83;;;2.30;1.00;;;;;;5012989;28;20860;-58
2021/12/25 01:57:44;;;;;;;23.27;14.40;;;2.30;1.00;;;;;;5013111;28;20473;-61
2021/12/25 02:00:17;;;;;;;23.37;14.50;;;2.30;1.00;;;;;;5012313;28;20941;-60
2021/12/25 02:02:45;;;;;;;21.40;13.50;;;2.30;1.00;;;;;;5013387;28;20500;-59
2021/12/25 02:05:12;;;;;;;20.20;12.30;;;2.30;1.00;;;;;;5013183;28;20486;-57
2021/12/25 02:07:39;;;;;;;21.00;13.73;;;2.20;1.00;;;;;;5011832;28;20472;-58
2021/12/25 02:10:08;;;;;;;26.27;17.13;;;2.20;1.00;;;;;;5012754;28;20449;-60
2021/12/25 02:12:35;;;;;;;24.00;15.20;;;2.10;1.00;;;;;;5012322;28;20963;-59
2021/12/25 02:15:07;;;;;;;20.47;11.93;;;2.10;1.00;;;;;;5013348;28;20967;-59
2021/12/25 02:17:52;;;;;;;24.20;14.40;;;2.10;1.00;;;;;;5012512;28;21070;-60
2021/12/25 02:20:27;;;;;;;19.77;13.47;;;2.10;1.00;;;;;;5012911;28;20549;-60
2021/12/25 02:23:00;;;;;;;22.47;14.27;;;2.00;1.00;;;;;;5012616;28;20945;-59
2021/12/25 02:25:28;;;;;;;25.60;14.90;;;2.00;1.00;;;;;;5012339;28;20534;-58
2021/12/25 02:27:55;;;;;;;25.40;15.57;;;2.00;1.00;;;;;;5012404;28;20462;-60
2021/12/25 02:30:21;;;;;;;24.53;16.03;;;2.00;1.00;;;;;;5012616;28;20449;-59
2021/12/25 02:32:48;;;;;;;23.30;15.20;;;1.90;1.00;;;;;;5012278;28;20453;-60
2021/12/25 02:35:16;;;;;;;25.17;16.77;;;1.90;1.00;;;;;;5012096;28;20446;-59
2021/12/25 02:37:45;;;;;;;20.73;13.17;;;1.90;1.00;;;;;;5012528;28;20485;-60
2021/12/25 02:40:14;;;;;;;24.13;14.27;;;1.90;1.00;;;;;;5012798;28;20450;-58
2021/12/25 02:42:41;;;;;;;17.63;10.63;;;1.90;1.00;;;;;;5012536;28;20450;-60
2021/12/25 02:45:15;;;;;;;21.07;13.90;;;1.90;1.00;;;;;;5011780;28;20508;-60
2021/12/25 02:47:43;;;;;;;19.50;12.47;;;1.80;1.00;;;;;;5011800;28;20477;-61
2021/12/25 02:50:11;;;;;;;16.63;9.73;;;1.80;1.00;;;;;;5012373;28;21078;-60
2021/12/25 02:52:38;;;;;;;28.00;16.67;;;1.80;1.00;;;;;;5012187;28;20449;-60
2021/12/25 02:55:07;;;;;;;26.80;16.63;;;1.80;1.00;;;;;;5012131;28;20446;-59
2021/12/25 02:57:34;;;;;;;26.83;17.40;;;1.80;1.00;;;;;;5011496;28;20473;-60
2021/12/25 03:00:01;;;;;;;18.73;11.73;;;1.80;1.00;;;;;;5011907;28;20450;-60
2021/12/25 03:02:27;;;;;;;21.30;14.13;;;1.80;1.00;;;;;;5011837;28;20453;-60
2021/12/25 03:04:54;;;;;;;22.57;14.27;;;1.70;1.00;;;;;;5011867;28;20449;-60
2021/12/25 03:07:21;;;;;;;24.80;14.77;;;1.70;1.00;;;;;;5011411;28;21206;-60
2021/12/25 03:09:48;;;;;;;24.87;15.70;;;1.70;1.00;;;;;;5011723;28;20508;-60
2021/12/25 03:12:23;;;;;;;30.20;17.80;;;1.70;1.00;;;;;;5011855;28;20466;-60
2021/12/25 03:15:05;;;;;;;22.83;14.40;;;1.60;1.00;;;;;;5011606;28;20600;-60
2021/12/25 03:17:34;;;;;;;23.20;13.70;;;1.60;1.00;;;;;;5011294;28;20476;-60
2021/12/25 03:20:00;;;;;;;31.57;17.40;;;1.60;1.00;;;;;;5012315;28;20928;-59
2021/12/25 03:22:27;;;;;;;23.50;13.80;;;1.60;1.00;;;;;;5014238;28;20816;-60
2021/12/25 03:24:54;;;;;;;31.77;17.57;;;1.60;1.00;;;;;;5012535;28;20452;-58
2021/12/25 03:27:22;;;;;;;29.20;17.50;;;1.60;1.00;;;;;;5011810;28;20526;-60
2021/12/25 03:29:49;;;;;;;29.43;16.87;;;1.60;1.00;;;;;;5011930;28;20857;-59
2021/12/25 03:32:16;;;;;;;30.10;16.57;;;1.50;1.00;;;;;;5012696;28;21034;-59
2021/12/25 03:34:43;;;;;;;22.13;12.60;;;1.50;1.00;;;;;;5016778;28;20944;-58
2021/12/25 03:37:11;;;;;;;33.50;17.87;;;1.50;1.00;;;;;;5017404;28;20842;-59
2021/12/25 03:39:38;;;;;;;27.17;15.83;;;1.50;1.00;;;;;;5013369;28;20459;-60
2021/12/25 03:42:05;;;;;;;27.53;16.83;;;1.50;1.00;;;;;;5011240;28;20448;-60
2021/12/25 03:44:35;;;;;;;26.43;15.53;;;1.50;1.00;;;;;;5017260;28;20508;-59
2021/12/25 03:47:11;;;;;;;27.37;16.27;;;1.50;1.00;;;;;;5011865;28;20515;-60
2021/12/25 03:53:08;;;;;;;25.97;14.43;;;1.40;1.00;;;;;;5011348;28;20470;-59
2021/12/25 03:58:04;;;;;;;27.03;15.60;;;1.40;1.00;;;;;;5010962;28;20567;-60
2021/12/25 04:00:33;;;;;;;24.37;14.70;;;1.40;99.90;;;;;;5010908;28;20468;-60
2021/12/25 04:03:04;;;;;;;24.53;15.47;;;1.40;99.90;;;;;;5010871;28;20876;-59
2021/12/25 04:05:34;;;;;;;25.00;14.90;;;1.40;99.90;;;;;;5010911;28;20494;-59
2021/12/25 04:08:06;;;;;;;27.57;16.77;;;1.40;99.90;;;;;;5013353;28;21040;-58
2021/12/25 04:10:36;;;;;;;23.47;14.37;;;1.40;99.90;;;;;;5015103;28;20456;-59
2021/12/25 04:13:05;;;;;;;21.40;12.97;;;1.40;99.90;;;;;;5015024;28;20456;-59
2021/12/25 04:15:33;;;;;;;26.67;14.77;;;1.30;99.90;;;;;;5014910;28;20460;-60
2021/12/25 04:18:00;;;;;;;26.37;16.20;;;1.30;99.90;;;;;;5015376;28;20479;-60
2021/12/25 04:20:27;;;;;;;26.70;16.57;;;1.40;99.90;;;;;;5015208;28;20458;-59
2021/12/25 04:22:59;;;;;;;26.47;16.73;;;1.40;99.90;;;;;;5014485;28;20473;-58
2021/12/25 04:25:28;;;;;;;27.53;16.83;;;1.40;99.90;;;;;;5015123;28;20543;-59
2021/12/25 04:28:01;;;;;;;29.33;15.63;;;1.40;99.90;;;;;;5014315;28;20853;-59
2021/12/25 04:30:35;;;;;;;20.80;11.53;;;1.30;99.90;;;;;;5014626;28;20457;-58
2021/12/25 04:42:41;;;;;;;14.03;9.17;;;1.30;99.90;;;;;;5015093;28;20455;-60
2021/12/25 05:03:46;;;;;;;21.13;11.93;;;1.00;99.90;;;;;;5013917;28;20439;-59
2021/12/25 05:06:14;;;;;;;16.80;9.67;;;0.90;99.90;;;;;;5013553;28;20495;-60
2021/12/25 05:08:41;;;;;;;18.10;11.13;;;0.90;99.90;;;;;;5014411;28;20839;-60
2021/12/25 05:11:09;;;;;;;19.83;11.87;;;0.90;99.90;;;;;;5013986;28;20487;-59
2021/12/25 05:13:36;;;;;;;16.43;10.90;;;0.90;99.90;;;;;;5014473;28;20967;-60
2021/12/25 05:16:03;;;;;;;20.63;12.47;;;0.80;99.90;;;;;;5013892;28;20537;-60
2021/12/25 05:18:30;;;;;;;14.03;9.40;;;0.80;99.90;;;;;;5012943;28;20466;-59
2021/12/25 05:20:57;;;;;;;20.23;12.80;;;0.80;99.90;;;;;;5014023;28;20455;-59
2021/12/25 05:23:25;;;;;;;15.80;10.47;;;0.80;99.90;;;;;;5014175;28;20475;-59
2021/12/25 05:25:52;;;;;;;19.23;11.63;;;0.80;99.90;;;;;;5013889;28;20912;-60
2021/12/25 05:28:24;;;;;;;11.60;7.63;;;0.80;99.90;;;;;;5013380;28;20479;-59
2021/12/25 05:30:52;;;;;;;18.10;12.33;;;0.70;99.90;;;;;;5013796;28;20452;-59
2021/12/25 05:33:19;;;;;;;17.60;9.20;;;0.70;99.90;;;;;;5013547;28;20444;-59
2021/12/25 05:35:46;;;;;;;16.50;10.77;;;0.70;99.90;;;;;;5013664;28;20539;-59
2021/12/25 05:38:13;;;;;;;14.60;9.50;;;0.70;99.90;;;;;;5012758;28;20485;-59
2021/12/25 05:40:41;;;;;;;16.50;10.27;;;0.60;99.90;;;;;;5013125;28;20541;-59
2021/12/25 05:43:08;;;;;;;18.47;10.27;;;0.60;99.90;;;;;;5012827;28;20836;-60
2021/12/25 05:45:35;;;;;;;19.77;12.37;;;0.50;99.90;;;;;;5012593;28;20896;-60
2021/12/25 05:48:02;;;;;;;13.90;10.10;;;0.50;99.90;;;;;;5013044;28;20971;-60
2021/12/25 05:50:29;;;;;;;11.23;7.80;;;0.50;99.90;;;;;;5013222;28;20502;-60
2021/12/25 05:52:56;;;;;;;17.17;10.27;;;0.50;99.90;;;;;;5012901;28;20462;-60
2021/12/25 05:55:23;;;;;;;19.23;11.47;;;0.40;99.90;;;;;;5012509;28;20891;-60
2021/12/25 05:57:52;;;;;;;19.03;10.63;;;0.40;99.90;;;;;;5013161;28;20470;-59
2021/12/25 06:00:20;;;;;;;17.63;11.60;;;0.40;99.90;;;;;;5013787;28;20454;-58
2021/12/25 06:02:48;;;;;;;11.23;7.60;;;0.40;99.90;;;;;;5013424;28;20865;-60
2021/12/25 06:05:15;;;;;;;16.87;9.20;;;0.40;99.90;;;;;;5013037;28;20450;-59
2021/12/25 06:07:42;;;;;;;11.90;8.07;;;0.40;99.90;;;;;;5012106;28;20560;-59
2021/12/25 06:10:10;;;;;;;16.00;10.40;;;0.30;99.90;;;;;;5012853;28;20967;-59
2021/12/25 06:12:38;;;;;;;9.43;6.57;;;0.40;99.90;;;;;;5012297;28;20498;-60
2021/12/25 06:15:08;;;;;;;15.90;10.23;;;0.30;99.90;;;;;;5012570;28;20452;-60
2021/12/25 06:17:35;;;;;;;10.70;6.87;;;0.30;99.90;;;;;;5011953;28;20521;-59
2021/12/25 06:20:02;;;;;;;18.47;10.83;;;0.30;99.90;;;;;;5012658;28;20486;-60
2021/12/25 06:22:29;;;;;;;14.13;8.10;;;0.30;99.90;;;;;;5012520;28;20455;-59
2021/12/25 06:24:55;;;;;;;12.00;8.43;;;0.30;99.90;;;;;;5012940;28;20446;-58
2021/12/25 06:27:23;;;;;;;15.20;10.03;;;0.30;99.90;;;;;;5012213;28;20490;-60
2021/12/25 06:29:50;;;;;;;16.47;11.13;;;0.30;99.90;;;;;;5012545;28;21012;-59
2021/12/25 06:32:20;;;;;;;13.93;8.17;;;0.30;99.90;;;;;;5012630;28;20450;-59
2021/12/25 06:34:47;;;;;;;10.60;7.17;;;0.20;99.90;;;;;;5012507;28;20505;-60
2021/12/25 06:37:14;;;;;;;17.20;11.37;;;0.20;99.90;;;;;;5012580;28;20850;-59
2021/12/25 06:39:41;;;;;;;14.00;9.90;;;0.20;99.90;;;;;;5012477;28;20467;-59
2021/12/25 06:42:09;;;;;;;15.57;10.90;;;0.10;99.90;;;;;;5012439;28;20454;-59
2021/12/25 06:44:37;;;;;;;17.60;12.17;;;0.10;99.90;;;;;;5012669;28;20450;-59
2021/12/25 06:47:04;;;;;;;14.57;9.90;;;0.10;99.90;;;;;;5012090;28;20525;-60
2021/12/25 06:49:33;;;;;;;16.53;11.53;;;0.10;99.90;;;;;;5012722;28;20518;-59
2021/12/25 06:52:00;;;;;;;11.97;7.07;;;0.10;99.90;;;;;;5012343;28;20450;-61
2021/12/25 06:54:27;;;;;;;12.33;8.27;;;0.00;99.90;;;;;;5012302;28;20455;-59
2021/12/25 06:56:54;;;;;;;15.97;10.87;;;0.00;99.90;;;;;;5011026;28;20454;-58
2021/12/25 06:59:22;;;;;;;13.30;9.80;;;0.00;99.90;;;;;;5014278;28;20449;-59
2021/12/25 07:01:49;;;;;;;11.67;7.57;;;0.00;99.90;;;;;;5014355;28;20892;-59
2021/12/25 07:04:17;;;;;;;15.13;8.67;;;0.00;99.90;;;;;;5012464;28;21290;-60
2021/12/25 07:06:45;;;;;;;16.70;10.60;;;0.00;99.90;;;;;;5011976;28;20572;-60
2021/12/25 07:09:12;;;;;;;13.20;8.83;;;0.00;99.90;;;;;;5012016;28;20454;-60
2021/12/25 07:11:39;;;;;;;9.27;6.77;;;0.00;99.90;;;;;;5011629;28;20493;-61
2021/12/25 07:14:09;;;;;;;12.47;8.13;;;0.00;99.90;;;;;;5011862;28;20478;-61
2021/12/25 07:16:35;;;;;;;13.50;8.87;;;0.00;99.90;;;;;;5011024;28;20446;-60
2021/12/25 07:19:03;;;;;;;15.27;10.53;;;0.00;99.90;;;;;;5010710;28;20479;-60
2021/12/25 07:21:30;;;;;;;12.57;9.10;;;0.00;99.90;;;;;;5011388;28;20451;-60
2021/12/25 07:23:58;;;;;;;10.23;7.13;;;-0.10;99.90;;;;;;5011117;28;20494;-59
2021/12/25 07:26:27;;;;;;;11.87;7.03;;;-0.10;99.90;;;;;;5010880;28;20481;-62
2021/12/25 07:28:54;;;;;;;14.43;9.40;;;-0.10;99.90;;;;;;5011449;28;20470;-61
2021/12/25 07:31:21;;;;;;;11.83;8.27;;;-0.10;99.90;;;;;;5010837;28;20501;-61
2021/12/25 07:33:48;;;;;;;9.40;6.73;;;-0.10;99.90;;;;;;5011538;28;20454;-61
2021/12/25 07:36:15;;;;;;;15.30;9.27;;;-0.10;99.90;;;;;;5011392;28;20519;-59
2021/12/25 07:38:42;;;;;;;13.20;8.93;;;-0.10;99.90;;;;;;5011568;28;20891;-61
2021/12/25 07:41:10;;;;;;;10.87;7.67;;;-0.10;99.90;;;;;;5010922;28;20450;-61
2021/12/25 07:43:37;;;;;;;10.60;8.30;;;-0.10;99.90;;;;;;5010689;28;20459;-60
2021/12/25 07:46:05;;;;;;;13.17;9.73;;;-0.10;99.90;;;;;;5010236;28;20469;-60
2021/12/25 07:48:33;;;;;;;17.60;11.07;;;-0.10;99.90;;;;;;5011605;28;20478;-61
2021/12/25 07:51:02;;;;;;;16.90;11.37;;;-0.10;99.90;;;;;;5011812;28;20453;-61
2021/12/25 07:53:30;;;;;;;10.07;7.50;;;-0.20;99.90;;;;;;5010648;28;20875;-60
2021/12/25 07:55:57;;;;;;;15.17;10.17;;;-0.20;99.90;;;;;;5011204;28;20458;-61
2021/12/25 07:58:25;;;;;;;13.93;8.93;;;-0.20;96.00;;;;;;5010771;28;20471;-61
2021/12/25 08:00:53;;;;;;;12.97;9.63;;;-0.20;99.90;;;;;;5010603;28;20470;-61
2021/12/25 08:03:20;;;;;;;9.23;5.67;;;-0.20;99.90;;;;;;5011338;28;20549;-61
2021/12/25 08:05:47;;;;;;;14.10;9.33;;;-0.30;99.90;;;;;;5011199;28;20461;-61
2021/12/25 08:08:14;;;;;;;8.80;6.80;;;-0.30;99.90;;;;;;5010742;28;20494;-59
2021/12/25 08:10:42;;;;;;;14.73;9.97;;;-0.30;99.90;;;;;;5010873;28;20454;-61
2021/12/25 08:13:09;;;;;;;13.03;9.67;;;-0.30;99.90;;;;;;5011302;28;20486;-60
2021/12/25 08:15:37;;;;;;;13.23;8.93;;;-0.40;99.90;;;;;;5011468;28;20454;-61
2021/12/25 08:18:05;;;;;;;12.70;8.63;;;-0.40;99.90;;;;;;5011392;28;20556;-61
2021/12/25 08:20:34;;;;;;;13.93;9.03;;;-0.40;99.90;;;;;;5010781;28;20875;-61
2021/12/25 08:23:02;;;;;;;13.07;8.43;;;-0.30;99.90;;;;;;5010970;28;20552;-61
2021/12/25 08:25:29;;;;;;;16.53;9.60;;;-0.40;93.20;;;;;;5010905;28;20454;-61
2021/12/25 08:27:56;;;;;;;13.57;9.40;;;-0.40;90.80;;;;;;5011043;28;20958;-60
2021/12/25 08:30:26;;;;;;;8.03;5.57;;;-0.40;61.00;;;;;;5010879;28;20532;-60
2021/12/25 08:32:55;;;;;;;12.57;8.60;;;-0.40;12.70;;;;;;5010637;28;20486;-60
2021/12/25 08:35:24;;;;;;;9.67;6.47;;;-0.40;1.00;;;;;;5010913;28;20589;-57
2021/12/25 08:37:52;;;;;;;11.60;7.83;;;-0.30;1.00;;;;;;5004930;28;20540;-61
2021/12/25 08:40:18;;;;;;;12.40;8.00;;;-0.40;1.00;;;;;;5009622;28;20874;-62
2021/12/25 08:42:50;;;;;;;10.43;7.60;;;-0.40;1.00;;;;;;5010129;28;20447;-62
2021/12/25 08:45:39;;;;;;;9.67;6.70;;;-0.40;1.00;;;;;;5010390;28;20510;-63
2021/12/25 08:48:10;;;;;;;7.60;6.23;;;-0.40;1.00;;;;;;5010083;28;20535;-61
2021/12/25 08:50:37;;;;;;;8.80;6.23;;;-0.40;1.00;;;;;;5010596;28;20438;-62
2021/12/25 08:53:04;;;;;;;9.40;7.07;;;-0.40;1.00;;;;;;5010610;28;20450;-62
2021/12/25 08:55:31;;;;;;;9.90;6.47;;;-0.40;1.00;;;;;;5013753;28;20449;-63
2021/12/25 08:57:58;;;;;;;7.73;5.83;;;-0.30;1.00;;;;;;5013527;28;20474;-64
2021/12/25 09:00:25;;;;;;;8.53;6.47;;;-0.40;1.00;;;;;;5013574;28;20450;-64
2021/12/25 09:02:52;;;;;;;12.20;5.73;;;-0.30;1.00;;;;;;5014271;28;20455;-64
2021/12/25 09:05:20;;;;;;;7.13;3.93;;;-0.30;1.00;;;;;;5014426;28;20541;-62
2021/12/25 09:07:47;;;;;;;6.23;4.47;;;-0.30;1.00;;;;;;5013543;28;20497;-62
2021/12/25 09:10:14;;;;;;;8.23;5.50;;;-0.30;99.90;;;;;;5013906;28;20490;-61
2021/12/25 09:12:43;;;;;;;11.10;6.13;;;-0.30;99.90;;;;;;5013936;28;21027;-62
2021/12/25 09:15:10;;;;;;;6.37;4.63;;;-0.30;99.90;;;;;;5013587;28;20987;-62
2021/12/25 09:17:37;;;;;;;5.30;3.53;;;-0.30;99.90;;;;;;5012593;28;20868;-62
2021/12/25 09:20:05;;;;;;;6.90;4.60;;;-0.40;99.90;;;;;;5013735;28;20509;-60
2021/12/25 09:22:34;;;;;;;9.07;6.13;;;-0.40;99.90;;;;;;5013655;28;20497;-58
2021/12/25 09:25:01;;;;;;;4.97;2.73;;;-0.40;99.90;;;;;;5013774;28;20541;-59
2021/12/25 09:27:28;;;;;;;7.13;4.33;;;-0.40;99.90;;;;;;4995542;28;20490;-60
2021/12/25 09:29:54;;;;;;;3.37;2.63;;;-0.40;99.90;;;;;;5012927;28;20450;-61
2021/12/25 09:32:21;;;;;;;4.70;3.60;;;-0.40;99.90;;;;;;5013497;28;20464;-61
2021/12/25 09:34:48;;;;;;;5.93;4.37;;;-0.50;99.90;;;;;;5013566;28;20533;-62
2021/12/25 09:37:15;;;;;;;8.23;5.13;;;-0.40;99.90;;;;;;5013209;28;20470;-61
2021/12/25 09:39:43;;;;;;;5.00;3.80;;;-0.40;99.90;;;;;;5012460;28;20462;-62
2021/12/25 09:42:10;;;;;;;4.60;3.70;;;-0.30;99.90;;;;;;5014010;28;20462;-62
2021/12/25 09:44:37;;;;;;;6.87;5.13;;;-0.40;99.90;;;;;;5013772;28;21010;-61
2021/12/25 09:47:04;;;;;;;4.23;3.00;;;-0.50;99.90;;;;;;5012981;28;20893;-64
2021/12/25 09:49:30;;;;;;;2.80;2.33;;;-0.50;99.90;;;;;;5013610;28;20512;-61
2021/12/25 09:51:58;;;;;;;4.17;3.53;;;-0.50;99.90;;;;;;5013747;28;20454;-61
2021/12/25 09:54:27;;;;;;;3.60;2.67;;;-0.50;99.90;;;;;;5013669;28;20945;-62
2021/12/25 09:56:57;;;;;;;5.13;3.40;;;-0.50;99.90;;;;;;5013234;28;20445;-63
2021/12/25 09:59:24;;;;;;;3.23;2.53;;;-0.50;95.10;;;;;;5013621;28;20461;-62
2021/12/25 10:01:52;;;;;;;4.27;3.23;;;-0.50;99.90;;;;;;5024224;28;20472;-63
2021/12/25 10:04:35;;;;;;;4.73;3.37;;;-0.50;99.90;;;;;;5013709;28;20848;-62
2021/12/25 10:07:21;;;;;;;3.37;2.27;;;-0.50;99.90;;;;;;5013289;28;21085;-60
2021/12/25 10:10:01;;;;;;;3.33;2.60;;;-0.50;1.00;;;;;;5012456;28;20960;-68
2021/12/25 10:12:35;;;;;;;2.87;1.90;;;-0.60;17.00;;;;;;5013461;28;20804;-59
2021/12/25 10:15:02;;;;;;;2.77;1.97;;;-0.40;13.50;;;;;;5013265;28;20468;-55
2021/12/25 10:17:32;;;;;;;2.97;2.67;;;-0.50;1.00;;;;;;5014459;28;20461;-62
2021/12/25 10:20:09;;;;;;;3.47;2.57;;;-0.50;1.00;;;;;;5014783;28;20506;-59
2021/12/25 10:22:54;;;;;;;2.43;2.20;;;-0.60;1.00;;;;;;5013309;28;20454;-55
2021/12/25 10:25:20;;;;;;;3.40;2.50;;;-0.60;1.00;;;;;;5013161;28;20544;-59
2021/12/25 10:27:50;;;;;;;2.30;2.10;;;-0.60;1.00;;;;;;5015022;28;20498;-62
2021/12/25 10:30:17;;;;;;;3.60;2.47;;;-0.60;1.00;;;;;;5015157;28;20478;-61
2021/12/25 10:32:44;;;;;;;6.37;3.03;;;-0.50;1.00;;;;;;5013323;28;20454;-59
2021/12/25 10:35:17;;;;;;;3.43;2.50;;;-0.50;1.00;;;;;;5013257;28;20481;-61
2021/12/25 10:37:44;;;;;;;2.90;2.33;;;-0.50;1.00;;;;;;5012351;28;20963;-60
2021/12/25 10:40:32;;;;;;;2.27;1.77;;;-0.40;1.00;;;;;;5013030;28;20952;-59
2021/12/25 10:43:03;;;;;;;3.27;2.77;;;-0.40;1.00;;;;;;5012675;28;20806;-62
2021/12/25 10:45:31;;;;;;;2.57;1.73;;;-0.30;99.90;;;;;;5012822;28;20473;-61
2021/12/25 10:48:05;;;;;;;3.50;2.00;;;-0.30;99.90;;;;;;5012163;28;20984;-58
2021/12/25 10:50:36;;;;;;;2.87;2.30;;;-0.30;99.90;;;;;;5012471;28;20874;-60
2021/12/25 10:53:07;;;;;;;3.03;1.93;;;-0.20;99.90;;;;;;5012686;28;20481;-62
2021/12/25 10:55:37;;;;;;;4.23;2.30;;;-0.30;56.40;;;;;;5012843;28;20459;-61
2021/12/25 10:58:18;;;;;;;3.27;2.40;;;-0.40;99.90;;;;;;5012258;28;20493;-60
2021/12/25 11:00:49;;;;;;;4.80;2.57;;;-0.30;99.90;;;;;;5013366;28;20453;-64
2021/12/25 11:03:16;;;;;;;2.33;1.87;;;-0.30;99.90;;;;;;5011661;28;20502;-62
2021/12/25 11:05:46;;;;;;;3.03;2.47;;;-0.30;99.90;;;;;;5011884;28;21016;-63
2021/12/25 11:08:15;;;;;;;2.43;1.77;;;-0.40;99.90;;;;;;5011376;28;20547;-58
2021/12/25 11:10:44;;;;;;;3.43;2.00;;;-0.40;99.90;;;;;;5012509;28;20854;-60
2021/12/25 11:13:21;;;;;;;2.80;2.40;;;-0.50;8.20;;;;;;5011492;28;20450;-60
2021/12/25 11:15:49;;;;;;;2.73;2.53;;;-0.50;74.60;;;;;;5011603;28;20542;-62
2021/12/25 11:18:17;;;;;;;2.90;2.30;;;-0.60;42.10;;;;;;5010230;28;20524;-61
2021/12/25 11:20:46;;;;;;;2.93;1.73;;;-0.50;99.90;;;;;;5011137;28;20537;-62
2021/12/25 11:23:14;;;;;;;2.47;1.83;;;-0.50;9.10;;;;;;5011046;28;20477;-62
2021/12/25 11:25:44;;;;;;;2.57;2.13;;;-0.50;1.00;;;;;;5011422;28;20870;-60
2021/12/25 11:28:14;;;;;;;4.50;2.27;;;-0.50;39.80;;;;;;5010983;28;20485;-63
2021/12/25 11:30:44;;;;;;;5.10;3.67;;;-0.50;1.00;;;;;;5009536;28;20464;-58
2021/12/25 11:33:11;;;;;;;4.47;3.65;;;-0.50;1.00;;;;;;5010217;28;20420;-60
2021/12/25 11:35:40;;;;;;;3.92;3.53;;;-0.50;1.00;;;;;;5009616;28;20423;-59
2021/12/25 11:38:10;;;;;;;4.47;3.80;;;-0.50;16.90;;;;;;5009101;28;20417;-61
2021/12/25 11:40:47;;;;;;;6.82;4.13;;;-0.50;4.20;;;;;;5010026;28;20416;-60
2021/12/25 11:43:14;;;;;;;5.10;3.90;;;-0.40;99.90;;;;;;5009785;28;20863;-62
2021/12/25 11:45:42;;;;;;;5.38;3.95;;;-0.40;99.90;;;;;;5010152;28;20417;-61
2021/12/25 11:48:15;;;;;;;4.15;3.10;;;-0.20;99.90;;;;;;5010639;28;20779;-62
2021/12/25 11:50:46;;;;;;;6.40;3.55;;;-0.40;1.00;;;;;;5010148;28;20416;-59
2021/12/25 11:53:20;;;;;;;4.22;3.20;;;-0.50;1.00;;;;;;5009358;28;20519;-62
2021/12/25 11:58:49;;;;;;;4.80;3.65;;;-0.60;99.90;;;;;;5010023;28;20490;-62
2021/12/25 12:01:26;;;;;;;5.65;3.58;;;-0.60;1.00;;;;;;5009994;28;20495;-62
2021/12/25 12:03:56;;;;;;;4.18;3.30;;;-0.50;1.00;;;;;;5026680;28;20407;-62
2021/12/25 12:07:01;;;;;;;4.05;3.35;;;-0.50;1.00;;;;;;5029994;28;20419;-63
2021/12/25 12:09:31;;;;;;;4.40;3.40;;;-0.40;1.00;;;;;;5028966;28;20814;-61
2021/12/25 12:12:14;;;;;;;3.15;2.85;;;-0.40;99.90;;;;;;5029121;28;20429;-63
2021/12/25 12:14:41;;;;;;;4.95;3.17;;;-0.40;99.90;;;;;;5028935;28;20411;-63
2021/12/25 12:17:25;;;;;;;6.00;3.85;;;-0.40;99.90;;;;;;5028580;28;20419;-62
2021/12/25 12:19:53;;;;;;;3.47;2.60;;;-0.40;99.90;;;;;;5028326;28;20947;-62
2021/12/25 12:22:52;;;;;;;3.67;3.30;;;-0.40;52.40;;;;;;5029011;28;20841;-61
2021/12/25 12:25:26;;;;;;;4.32;3.70;;;-0.40;99.90;;;;;;5029503;28;20481;-62
2021/12/25 12:27:55;;;;;;;3.30;2.92;;;-0.50;99.90;;;;;;5029474;28;20422;-61
2021/12/25 12:30:39;;;;;;;4.00;2.95;;;-0.30;99.90;;;;;;5032910;28;20465;-63
2021/12/25 12:33:31;;;;;;;3.35;3.00;;;-0.30;68.10;;;;;;5017633;28;20446;-60
2021/12/25 12:35:58;;;;;;;5.20;3.17;;;-0.30;32.40;;;;;;5032642;28;20421;-62
2021/12/25 12:38:36;;;;;;;4.03;2.80;;;-0.30;1.00;;;;;;5032164;28;20473;-58
2021/12/25 12:41:16;;;;;;;4.53;3.03;;;-0.30;1.00;;;;;;5034173;28;20797;-60
2021/12/25 12:44:10;;;;;;;3.67;3.10;;;-0.20;1.00;;;;;;5031864;28;20839;-59
2021/12/25 12:47:17;;;;;;;3.70;3.10;;;-0.20;1.00;;;;;;5014992;28;20456;-60
2021/12/25 12:49:59;;;;;;;3.25;2.78;;;-0.10;1.00;;;;;;5010055;28;20843;-60
2021/12/25 12:52:30;;;;;;;3.50;3.03;;;-0.10;99.90;;;;;;5032923;28;20505;-61
2021/12/25 12:54:59;;;;;;;4.53;2.85;;;-0.20;1.00;;;;;;5032866;28;20481;-59
2021/12/25 12:57:30;;;;;;;3.05;2.60;;;-0.10;1.00;;;;;;5031586;28;20422;-56
2021/12/25 12:59:59;;;;;;;3.20;2.60;;;-0.10;99.90;;;;;;5032708;28;20406;-62
2021/12/25 13:02:28;;;;;;;4.38;3.70;;;-0.10;99.90;;;;;;5027879;28;20827;-64
2021/12/25 13:05:00;;;;;;;4.60;3.30;;;-0.10;99.90;;;;;;5012976;28;20423;-64
2021/12/25 13:07:29;;;;;;;3.08;2.60;;;0.00;99.90;;;;;;5012493;28;20512;-60
2021/12/25 13:10:01;;;;;;;2.35;2.15;;;-0.10;1.00;;;;;;5012798;28;20953;-58
2021/12/25 13:12:42;;;;;;;2.67;2.47;;;0.10;8.70;;;;;;5017002;28;20443;-57
2021/12/25 13:15:13;;;;;;;3.08;2.25;;;0.00;1.00;;;;;;5013235;28;20425;-58
2021/12/25 13:17:47;;;;;;;3.13;2.50;;;0.00;1.00;;;;;;5013347;28;20546;-62
2021/12/25 13:20:16;;;;;;;2.83;2.53;;;0.00;99.90;;;;;;5012768;28;20843;-56
2021/12/25 13:22:42;;;;;;;5.10;3.20;;;-0.10;99.90;;;;;;5013003;28;20424;-58
2021/12/25 13:25:18;;;;;;;2.80;1.80;;;0.00;1.00;;;;;;5012383;28;20413;-61
2021/12/25 13:27:53;;;;;;;3.60;2.60;;;-0.10;1.00;;;;;;5012160;28;20467;-60
2021/12/25 13:30:20;;;;;;;3.30;2.00;;;-0.10;1.00;;;;;;5012361;28;20412;-59
2021/12/25 13:32:46;;;;;;;2.50;2.10;;;-0.10;1.00;;;;;;5013196;28;20427;-60
2021/12/25 13:35:18;;;;;;;2.70;2.10;;;-0.10;99.90;;;;;;5012954;28;20416;-61
2021/12/25 13:37:45;;;;;;;2.83;2.25;;;0.00;99.90;;;;;;5010808;28;20425;-56
2021/12/25 13:40:15;;;;;;;2.47;2.28;;;0.00;99.90;;;;;;5010801;28;20443;-58
2021/12/25 13:42:42;;;;;;;2.33;1.95;;;0.00;99.90;;;;;;5011700;28;20431;-57
2021/12/25 13:45:09;;;;;;;2.70;2.00;;;0.10;99.90;;;;;;5012418;28;20409;-55
2021/12/25 13:47:38;;;;;;;2.45;1.92;;;0.00;82.20;;;;;;5013081;28;20416;-62
2021/12/25 13:50:07;;;;;;;2.00;1.80;;;0.00;99.90;;;;;;5013930;28;20486;-59